Time;durP1;ratioP1;P1;durP2;ratioP2;P2;SDS_P1;SDS_P2;PMS_P1;PMS_P2;Temp;Humidity;BMP_temperature;BMP_pressure;BME280_temperature;BME280_humidity;BME280_pressure;Samples;Min_cycle;Max_cycle;Signal;HPM_P1;HPM_P2
2023/07/07 00:00:18;;;;;;;10.80;3.35;;;;;;;17.37;71.07;101355.31;2095363;28;20072;-70
2023/07/07 00:01:22;;;;;;;5.25;3.20;;;;;;;17.34;70.97;101353.19;2080709;28;20058;-70
2023/07/07 00:02:24;;;;;;;7.40;3.40;;;;;;;17.41;71.10;101357.41;2058019;28;20121;-70
2023/07/07 00:03:25;;;;;;;12.23;3.15;;;;;;;17.40;71.22;101353.88;2066398;28;20093;-71
2023/07/07 00:04:28;;;;;;;4.57;2.75;;;;;;;17.42;71.08;101359.81;2074363;28;20085;-71
2023/07/07 00:05:30;;;;;;;6.43;3.08;;;;;;;17.44;71.10;101362.25;2074558;28;21220;-71
2023/07/07 00:06:32;;;;;;;12.23;2.97;;;;;;;17.40;71.01;101362.03;2074135;28;21406;-71
2023/07/07 00:07:36;;;;;;;5.40;3.00;;;;;;;17.38;70.87;101356.13;2074862;28;20152;-71
2023/07/07 00:08:40;;;;;;;6.72;3.10;;;;;;;17.37;70.53;101354.50;2074421;28;20034;-71
2023/07/07 00:09:47;;;;;;;6.18;3.15;;;;;;;17.31;70.59;101361.16;2075268;28;20100;-71
2023/07/07 00:10:50;;;;;;;8.30;3.10;;;;;;;17.32;71.06;101355.41;2090701;28;20154;-71
2023/07/07 00:11:52;;;;;;;8.80;2.97;;;;;;;17.32;71.01;101355.41;2090156;28;20045;-71
2023/07/07 00:12:54;;;;;;;8.57;3.55;;;;;;;17.34;71.06;101358.63;2082417;28;20156;-71
2023/07/07 00:13:55;;;;;;;7.80;2.90;;;;;;;17.35;71.09;101354.81;2082172;28;20797;-71
2023/07/07 00:14:59;;;;;;;7.95;3.47;;;;;;;17.31;71.24;101353.00;2073897;28;20037;-71
2023/07/07 00:16:01;;;;;;;5.53;2.92;;;;;;;17.29;71.41;101356.00;2074637;28;20905;-71
2023/07/07 00:17:06;;;;;;;7.18;3.38;;;;;;;17.32;71.65;101357.31;2074393;28;20967;-71
2023/07/07 00:18:09;;;;;;;8.85;3.50;;;;;;;17.33;71.37;101353.50;2074466;28;20066;-72
2023/07/07 00:19:11;;;;;;;7.97;3.13;;;;;;;17.36;71.47;101356.41;2082360;28;20903;-72
2023/07/07 00:20:13;;;;;;;7.40;3.17;;;;;;;17.38;71.25;101361.53;2073930;28;20165;-73
2023/07/07 00:21:15;;;;;;;8.85;3.30;;;;;;;17.40;71.22;101355.78;2082732;28;20038;-73
2023/07/07 00:22:17;;;;;;;8.48;3.20;;;;;;;17.41;71.15;101358.22;2098293;28;20071;-72
2023/07/07 00:23:19;;;;;;;9.40;2.97;;;;;;;17.36;70.89;101361.84;2074216;28;20034;-72
2023/07/07 00:24:25;;;;;;;8.80;4.00;;;;;;;17.28;70.69;101343.53;2067218;28;20043;-72
2023/07/07 00:25:26;;;;;;;5.57;3.47;;;;;;;17.31;70.87;101353.81;2065810;28;20121;-72
2023/07/07 00:26:28;;;;;;;6.40;3.15;;;;;;;17.29;71.09;101347.88;2074190;28;20026;-71
2023/07/07 00:27:30;;;;;;;10.07;3.65;;;;;;;17.29;71.10;101349.78;2068518;28;20027;-72
2023/07/07 00:28:32;;;;;;;7.93;3.55;;;;;;;17.23;71.32;101351.78;2082664;28;20038;-72
2023/07/07 00:29:36;;;;;;;12.30;3.28;;;;;;;17.19;71.11;101352.72;2099433;28;20917;-72
2023/07/07 00:30:38;;;;;;;7.55;3.55;;;;;;;17.14;71.41;101348.19;2106508;28;20139;-72
2023/07/07 00:31:42;;;;;;;7.25;3.45;;;;;;;17.08;71.40;101354.81;2090362;28;20164;-72
2023/07/07 00:32:44;;;;;;;8.30;3.55;;;;;;;17.03;71.71;101352.22;2090399;28;20034;-72
2023/07/07 00:33:45;;;;;;;8.82;3.55;;;;;;;17.03;71.91;101357.66;2082140;28;20808;-72
2023/07/07 00:34:49;;;;;;;7.07;3.50;;;;;;;17.00;71.93;101361.78;2074726;28;20073;-73
2023/07/07 00:35:50;;;;;;;8.23;3.42;;;;;;;16.97;72.11;101358.88;2074184;28;20042;-72
2023/07/07 00:36:52;;;;;;;6.15;3.17;;;;;;;16.96;72.02;101368.09;2074481;28;20121;-73
2023/07/07 00:37:54;;;;;;;6.55;3.28;;;;;;;16.95;72.43;101367.31;2074031;28;20042;-71
2023/07/07 00:39:03;;;;;;;6.43;3.50;;;;;;;16.96;72.61;101363.50;2067455;28;20035;-72
2023/07/07 00:40:08;;;;;;;7.63;3.45;;;;;;;16.99;72.29;101365.63;2067291;28;20097;-71
2023/07/07 00:41:10;;;;;;;4.50;3.20;;;;;;;17.02;72.49;101364.19;2075093;28;20261;-72
2023/07/07 00:42:11;;;;;;;9.50;3.40;;;;;;;17.04;72.36;101364.69;2073469;28;20128;-71
2023/07/07 00:43:18;;;;;;;4.90;3.10;;;;;;;17.09;72.21;101359.97;2074356;28;20038;-71
2023/07/07 00:44:19;;;;;;;6.38;3.15;;;;;;;17.10;71.99;101352.63;2058653;28;20137;-70
2023/07/07 00:45:21;;;;;;;6.00;3.22;;;;;;;17.16;71.76;101366.91;2066237;28;21032;-70
2023/07/07 00:46:22;;;;;;;6.28;3.22;;;;;;;17.18;71.75;101365.50;2090100;28;20041;-71
2023/07/07 00:47:25;;;;;;;6.82;3.25;;;;;;;17.21;71.33;101369.50;2090417;28;20065;-71
2023/07/07 00:48:34;;;;;;;7.30;3.45;;;;;;;17.22;71.19;101363.78;2081902;28;20927;-71
2023/07/07 00:49:37;;;;;;;5.97;3.65;;;;;;;17.23;71.13;101359.94;2083683;28;20026;-71
2023/07/07 00:50:47;;;;;;;7.63;3.60;;;;;;;17.20;71.32;101362.47;2081901;28;20168;-71
2023/07/07 00:51:59;;;;;;;6.40;3.50;;;;;;;17.19;71.10;101367.09;2084097;28;20085;-71
2023/07/07 00:53:01;;;;;;;7.07;3.70;;;;;;;17.20;70.95;101363.28;2075448;28;20073;-71
2023/07/07 00:54:06;;;;;;;8.02;3.60;;;;;;;17.21;70.89;101362.16;2074196;28;20030;-71
2023/07/07 00:55:13;;;;;;;7.72;3.30;;;;;;;17.19;70.77;101372.53;2074256;28;20042;-71
2023/07/07 00:56:25;;;;;;;6.43;3.17;;;;;;;17.20;71.09;101371.44;2074950;28;20041;-71
2023/07/07 00:57:26;;;;;;;;;;;;;;;17.20;71.01;101368.72;2083959;28;20038;-71
2023/07/07 00:58:30;;;;;;;9.30;3.50;;;;;;;17.21;70.89;101364.88;2082061;28;20847;-71
2023/07/07 00:59:38;;;;;;;8.20;3.40;;;;;;;17.23;70.82;101370.81;2074051;28;20037;-71
2023/07/07 01:00:44;;;;;;;7.53;3.50;;;;;;;17.24;70.49;101369.69;2082084;28;20026;-71
2023/07/07 01:01:47;;;;;;;7.90;3.22;;;;;;;17.26;70.60;101367.50;2081968;28;20046;-71
2023/07/07 01:02:55;;;;;;;6.22;2.97;;;;;;;17.24;70.49;101366.97;2081711;28;20923;-71
2023/07/07 01:04:07;;;;;;;6.20;2.95;;;;;;;17.24;70.56;101368.91;2090226;28;20168;-72
2023/07/07 01:05:10;;;;;;;6.57;3.33;;;;;;;17.24;70.44;101371.63;2082118;28;20973;-71
2023/07/07 01:06:19;;;;;;;5.53;3.17;;;;;;;17.23;70.71;101368.09;2081858;28;20038;-71
2023/07/07 01:07:28;;;;;;;7.20;3.22;;;;;;;17.22;70.62;101374.66;2074653;28;20896;-71
2023/07/07 01:08:32;;;;;;;5.65;3.35;;;;;;;17.20;70.56;101371.44;2075298;28;20161;-72
2023/07/07 01:09:37;;;;;;;6.55;3.22;;;;;;;17.18;71.03;101364.69;2066475;28;20863;-71
2023/07/07 01:10:39;;;;;;;10.05;3.53;;;;;;;17.17;70.93;101369.31;2073999;28;20093;-72
2023/07/07 01:11:41;;;;;;;9.05;3.35;;;;;;;17.16;70.74;101370.44;2073367;28;20040;-71
2023/07/07 01:12:43;;;;;;;9.75;3.42;;;;;;;17.14;70.95;101376.16;2073811;28;20112;-71
2023/07/07 01:13:50;;;;;;;8.30;4.30;;;;;;;17.12;70.81;101377.59;2074114;28;20046;-72
2023/07/07 01:14:52;;;;;;;5.40;3.17;;;;;;;17.09;71.04;101372.75;2066431;28;20193;-72
2023/07/07 01:16:30;;;;;;;8.88;3.63;;;;;;;17.06;71.19;101373.34;2081988;28;20895;-71
2023/07/07 01:18:06;;;;;;;5.78;3.30;;;;;;;17.03;71.21;101368.53;2059846;28;20031;-71
2023/07/07 01:19:45;;;;;;;7.75;3.45;;;;;;;16.99;71.58;101371.03;2065061;28;20049;-72
2023/07/07 01:21:01;;;;;;;5.72;3.45;;;;;;;16.97;71.39;101370.53;2065337;28;20049;-71
2023/07/07 01:22:24;;;;;;;6.93;2.92;;;;;;;16.91;71.72;101363.59;2062432;28;21004;-71
2023/07/07 01:24:18;;;;;;;7.63;3.50;;;;;;;16.90;71.93;101368.22;2079788;28;20621;-71
2023/07/07 01:25:24;;;;;;;4.65;3.47;;;;;;;16.88;71.85;101367.69;2082137;28;20051;-71
2023/07/07 01:26:35;;;;;;;7.50;3.80;;;;;;;16.86;71.96;101364.47;2090823;28;20825;-70
2023/07/07 01:28:13;;;;;;;7.78;3.35;;;;;;;16.88;72.29;101362.28;2093867;28;20032;-72
2023/07/07 01:29:38;;;;;;;7.57;3.70;;;;;;;16.89;71.93;101363.06;2078554;28;20033;-71
2023/07/07 01:30:45;;;;;;;6.40;3.28;;;;;;;16.88;71.80;101362.28;2075105;28;20169;-70
2023/07/07 01:31:54;;;;;;;8.63;3.85;;;;;;;16.90;71.59;101356.56;2083974;28;20156;-70
2023/07/07 01:32:55;;;;;;;8.33;3.50;;;;;;;16.87;72.08;101366.09;2082899;28;20839;-70
2023/07/07 01:33:57;;;;;;;7.10;3.47;;;;;;;16.87;71.86;101360.66;2089899;28;20271;-70
2023/07/07 01:35:07;;;;;;;7.78;3.33;;;;;;;16.83;71.95;101362.34;2090534;28;20876;-70
2023/07/07 01:36:08;;;;;;;9.65;3.65;;;;;;;16.84;71.80;101355.03;2090588;28;20263;-70
2023/07/07 01:37:11;;;;;;;7.35;3.85;;;;;;;16.87;71.84;101357.97;2090480;28;20112;-70
2023/07/07 01:38:32;;;;;;;9.10;3.70;;;;;;;16.84;72.03;101360.47;2098688;28;20033;-70
2023/07/07 01:39:36;;;;;;;6.75;3.50;;;;;;;16.82;71.73;101355.31;2098208;28;20925;-71
2023/07/07 01:40:46;;;;;;;8.48;3.60;;;;;;;16.83;71.73;101359.63;2089927;28;20830;-71
2023/07/07 01:41:53;;;;;;;6.50;3.45;;;;;;;16.83;71.88;101359.63;2084398;28;20109;-71
2023/07/07 01:43:01;;;;;;;5.60;3.22;;;;;;;16.80;71.77;101354.00;2082406;28;20050;-71
2023/07/07 01:44:13;;;;;;;8.10;3.85;;;;;;;16.75;71.75;101354.94;2074726;28;20030;-72
2023/07/07 01:45:21;;;;;;;7.88;3.60;;;;;;;16.72;71.62;101355.50;2094586;28;20079;-71
2023/07/07 01:46:37;;;;;;;6.70;3.30;;;;;;;16.72;71.92;101358.22;2096976;28;20044;-71
2023/07/07 01:47:39;;;;;;;7.80;3.38;;;;;;;16.74;71.81;101349.75;2102497;28;20850;-71
2023/07/07 01:48:57;;;;;;;6.25;3.13;;;;;;;16.75;71.87;101354.94;2098248;28;20033;-71
2023/07/07 01:50:23;;;;;;;6.38;3.40;;;;;;;16.77;71.67;101358.16;2086486;28;20899;-71
2023/07/07 01:51:30;;;;;;;6.25;3.10;;;;;;;16.76;71.51;101359.25;2098242;28;20037;-70
2023/07/07 01:52:46;;;;;;;7.88;3.47;;;;;;;16.78;71.41;101357.03;2107199;28;20036;-71
2023/07/07 01:53:51;;;;;;;10.38;4.07;;;;;;;16.79;71.51;101355.94;2098125;28;21030;-71
2023/07/07 01:55:03;;;;;;;5.90;3.20;;;;;;;16.80;71.48;101356.72;2073567;28;20160;-70
2023/07/07 01:56:11;;;;;;;5.20;3.35;;;;;;;16.79;71.45;101363.28;2077446;28;20039;-71
2023/07/07 01:57:16;;;;;;;7.63;3.60;;;;;;;16.80;71.31;101363.00;2082784;28;20038;-71
2023/07/07 01:58:20;;;;;;;7.25;3.38;;;;;;;16.75;71.24;101352.22;2082614;28;20155;-71
2023/07/07 01:59:23;;;;;;;8.65;3.63;;;;;;;16.81;71.04;101361.88;2106884;28;20075;-71
2023/07/07 02:00:28;;;;;;;6.93;3.50;;;;;;;16.80;71.30;101359.44;2081017;28;20042;-71
2023/07/07 02:01:30;;;;;;;5.13;3.30;;;;;;;16.79;70.97;101364.06;2075026;28;20172;-71
2023/07/07 02:02:31;;;;;;;6.95;3.00;;;;;;;16.79;71.10;101355.94;2089964;28;20958;-71
2023/07/07 02:03:33;;;;;;;5.20;3.90;;;;;;;16.77;71.14;101360.88;2073763;28;20034;-71
2023/07/07 02:04:34;;;;;;;8.13;3.42;;;;;;;16.79;71.16;101364.06;2073785;28;20884;-71
2023/07/07 02:05:35;;;;;;;7.20;3.60;;;;;;;16.75;71.08;101354.94;2081737;28;20049;-70
2023/07/07 02:06:38;;;;;;;5.85;3.33;;;;;;;16.75;71.10;101356.81;2081526;28;20967;-71
2023/07/07 02:07:41;;;;;;;9.30;3.33;;;;;;;16.71;71.56;101358.50;2057922;28;20167;-71
2023/07/07 02:08:44;;;;;;;6.85;3.08;;;;;;;16.69;71.32;101358.81;2065868;28;20039;-71
2023/07/07 02:09:48;;;;;;;6.43;3.10;;;;;;;16.70;71.27;101354.97;2073480;28;20034;-71
2023/07/07 02:10:53;;;;;;;5.07;2.90;;;;;;;16.70;71.12;101360.41;2074986;28;20027;-71
2023/07/07 02:11:57;;;;;;;6.40;2.63;;;;;;;16.67;71.73;101361.81;2081312;28;20851;-71
2023/07/07 02:13:02;;;;;;;5.13;2.88;;;;;;;16.66;71.22;101362.13;2074715;28;20049;-70
2023/07/07 02:14:04;;;;;;;5.43;3.30;;;;;;;16.67;71.36;101361.00;2081444;28;20900;-71
2023/07/07 02:15:08;;;;;;;5.80;3.30;;;;;;;16.68;71.42;101358.00;2065770;28;20109;-71
2023/07/07 02:16:10;;;;;;;6.38;3.10;;;;;;;16.68;71.11;101363.44;2073866;28;20035;-71
2023/07/07 02:17:15;;;;;;;7.43;2.88;;;;;;;16.68;71.25;101363.44;2065734;28;20173;-70
2023/07/07 02:18:26;;;;;;;6.32;3.30;;;;;;;16.67;71.02;101361.81;2066349;28;20074;-70
2023/07/07 02:19:28;;;;;;;7.60;3.20;;;;;;;16.66;70.82;101368.34;2074630;28;20987;-71
2023/07/07 02:20:30;;;;;;;10.10;2.85;;;;;;;16.68;70.97;101368.06;2065039;28;20041;-71
2023/07/07 02:21:31;;;;;;;4.55;2.80;;;;;;;16.65;70.87;101366.75;2065493;28;20031;-71
2023/07/07 02:22:33;;;;;;;5.90;3.28;;;;;;;16.65;71.27;101374.91;2073395;28;20034;-71
2023/07/07 02:23:35;;;;;;;4.45;3.13;;;;;;;16.64;71.36;101367.84;2074887;28;20137;-70
2023/07/07 02:24:37;;;;;;;7.97;2.78;;;;;;;16.66;70.95;101362.13;2066504;28;20624;-69
2023/07/07 02:25:38;;;;;;;5.82;2.80;;;;;;;16.66;70.96;101370.28;2075251;28;20933;-71
2023/07/07 02:26:42;;;;;;;4.15;2.58;;;;;;;16.66;70.84;101365.63;2082587;28;20033;-72
2023/07/07 02:27:46;;;;;;;7.93;2.67;;;;;;;16.65;70.69;101368.66;2089955;28;20194;-70
2023/07/07 02:28:48;;;;;;;6.25;3.25;;;;;;;16.66;70.92;101370.28;2091852;28;20072;-70
2023/07/07 02:29:50;;;;;;;7.00;3.15;;;;;;;16.68;70.66;101362.63;2091232;28;20041;-70
2023/07/07 02:30:53;;;;;;;9.82;2.78;;;;;;;16.67;70.84;101363.72;2099517;28;20025;-69
2023/07/07 02:31:57;;;;;;;7.13;2.95;;;;;;;16.68;70.55;101359.94;2099848;28;20037;-72
2023/07/07 02:32:59;;;;;;;8.05;3.08;;;;;;;16.67;70.63;101361.81;2074710;28;20034;-71
2023/07/07 02:34:00;;;;;;;5.88;2.67;;;;;;;16.66;70.85;101364.84;2075219;28;20042;-71
2023/07/07 02:35:07;;;;;;;4.72;2.70;;;;;;;16.65;70.83;101358.59;2091499;28;20195;-70
2023/07/07 02:36:09;;;;;;;4.63;2.58;;;;;;;16.64;70.61;101367.03;2092189;28;20946;-70
2023/07/07 02:37:12;;;;;;;5.35;2.92;;;;;;;16.65;70.25;101363.25;2083498;28;20030;-70
2023/07/07 02:38:16;;;;;;;8.48;2.75;;;;;;;16.67;70.29;101367.25;2083302;28;20026;-71
2023/07/07 02:39:21;;;;;;;5.75;2.90;;;;;;;16.66;70.26;101371.06;2082610;28;20154;-69
2023/07/07 02:40:23;;;;;;;4.30;2.58;;;;;;;16.68;70.38;101368.88;2092071;28;20026;-71
2023/07/07 02:41:24;;;;;;;5.03;2.60;;;;;;;16.70;70.12;101363.13;2091306;28;20029;-71
2023/07/07 02:42:30;;;;;;;6.22;2.70;;;;;;;16.68;70.29;101366.16;2108544;28;20097;-71
2023/07/07 02:43:30;;;;;;;5.15;2.85;;;;;;;16.64;70.12;101367.84;2099577;28;20041;-70
2023/07/07 02:44:32;;;;;;;5.05;2.40;;;;;;;16.66;70.18;101364.84;2082826;28;20086;-71
2023/07/07 02:45:34;;;;;;;5.65;2.72;;;;;;;16.63;70.31;101366.25;2090857;28;20040;-71
2023/07/07 02:46:36;;;;;;;3.90;2.67;;;;;;;16.63;70.44;101370.88;2075045;28;20173;-71
2023/07/07 02:47:39;;;;;;;7.53;2.60;;;;;;;16.65;70.35;101371.38;2083183;28;20038;-71
2023/07/07 02:48:40;;;;;;;6.70;2.92;;;;;;;16.63;70.32;101370.88;2091606;28;20034;-71
2023/07/07 02:49:42;;;;;;;7.03;3.05;;;;;;;16.67;70.35;101369.16;2091066;28;20819;-71
2023/07/07 02:50:44;;;;;;;7.53;2.92;;;;;;;16.63;70.05;101374.38;2082905;28;20124;-71
2023/07/07 02:51:45;;;;;;;6.22;2.83;;;;;;;16.70;70.31;101371.28;2074641;28;20056;-71
2023/07/07 02:52:46;;;;;;;4.68;2.67;;;;;;;16.70;70.25;101376.69;2082871;28;20152;-70
2023/07/07 02:53:48;;;;;;;5.28;2.60;;;;;;;16.73;70.16;101370.69;2091178;28;20846;-70
2023/07/07 02:54:52;;;;;;;5.00;2.90;;;;;;;16.75;70.03;101373.94;2083174;28;20805;-70
2023/07/07 02:55:55;;;;;;;5.20;2.70;;;;;;;16.75;69.65;101371.22;2091464;28;20097;-70
2023/07/07 02:57:00;;;;;;;4.07;2.28;;;;;;;16.77;70.11;101365.47;2099354;28;20874;-70
2023/07/07 02:58:01;;;;;;;5.22;2.90;;;;;;;16.78;69.90;101370.63;2074957;28;20042;-70
2023/07/07 02:59:03;;;;;;;6.10;2.85;;;;;;;16.82;70.00;101366.19;2091241;28;20033;-71
2023/07/07 03:00:09;;;;;;;5.45;2.72;;;;;;;16.86;69.78;101369.91;2096222;28;20989;-71
2023/07/07 03:01:14;;;;;;;5.85;2.55;;;;;;;16.86;69.69;101369.91;2060006;28;20086;-71
2023/07/07 03:02:17;;;;;;;6.35;2.70;;;;;;;16.88;69.48;101370.41;2074942;28;20975;-71
2023/07/07 03:03:20;;;;;;;4.20;3.13;;;;;;;16.89;69.67;101368.50;2074920;28;20853;-70
2023/07/07 03:04:24;;;;;;;6.93;2.80;;;;;;;16.90;69.85;101368.22;2066575;28;20125;-70
2023/07/07 03:05:26;;;;;;;5.45;2.42;;;;;;;16.91;69.88;101377.97;2051457;28;21516;-70
2023/07/07 03:06:30;;;;;;;6.95;3.53;;;;;;;16.95;69.70;101377.38;2059417;28;20117;-70
2023/07/07 03:07:32;;;;;;;7.72;2.45;;;;;;;16.91;69.59;101372.53;2074797;28;20750;-70
2023/07/07 03:08:34;;;;;;;4.95;2.80;;;;;;;16.95;69.59;101382.81;2058322;28;20046;-70
2023/07/07 03:09:36;;;;;;;3.38;2.50;;;;;;;16.95;69.80;101383.59;2058667;28;20046;-70
2023/07/07 03:10:39;;;;;;;5.05;2.30;;;;;;;16.96;69.50;101378.97;2066168;28;20047;-70
2023/07/07 03:11:43;;;;;;;5.25;2.63;;;;;;;16.96;69.53;101378.97;2066797;28;20833;-70
2023/07/07 03:12:45;;;;;;;4.80;2.30;;;;;;;16.93;69.27;101372.25;2074566;28;20038;-70
2023/07/07 03:13:50;;;;;;;4.55;2.55;;;;;;;16.96;69.27;101381.69;2074467;28;20037;-70
2023/07/07 03:14:56;;;;;;;6.63;2.72;;;;;;;16.97;69.38;101380.59;2067405;28;20038;-70
2023/07/07 03:15:59;;;;;;;5.47;2.53;;;;;;;16.99;69.45;101378.38;2074934;28;20045;-70
2023/07/07 03:17:05;;;;;;;4.28;2.20;;;;;;;16.98;69.59;101379.47;2066804;28;20037;-72
2023/07/07 03:18:14;;;;;;;5.35;2.75;;;;;;;17.00;69.15;101380.00;2069482;28;20068;-71
2023/07/07 03:19:20;;;;;;;3.65;2.63;;;;;;;17.01;69.17;101385.13;2067683;28;20037;-71
2023/07/07 03:20:30;;;;;;;5.13;2.50;;;;;;;16.99;68.94;101384.63;2059600;28;20857;-71
2023/07/07 03:21:33;;;;;;;4.20;2.40;;;;;;;17.01;68.96;101385.13;2052402;28;20044;-71
2023/07/07 03:22:51;;;;;;;4.43;2.33;;;;;;;17.04;68.88;101391.88;2070762;28;20081;-71
2023/07/07 03:23:56;;;;;;;5.07;2.33;;;;;;;17.04;69.16;101389.16;2073697;28;20076;-72
2023/07/07 03:25:00;;;;;;;5.85;3.13;;;;;;;17.05;68.93;101393.47;2074953;28;20042;-72
2023/07/07 03:26:15;;;;;;;4.65;2.50;;;;;;;17.04;68.87;101387.22;2075728;28;20042;-72
2023/07/07 03:27:16;;;;;;;7.20;2.85;;;;;;;17.07;68.91;101396.69;2075240;28;20042;-72
2023/07/07 03:28:20;;;;;;;4.43;2.50;;;;;;;17.08;69.25;101396.38;2090704;28;20224;-72
2023/07/07 03:29:24;;;;;;;4.55;2.55;;;;;;;17.11;68.86;101393.06;2082162;28;20026;-72
2023/07/07 03:30:27;;;;;;;5.75;2.50;;;;;;;17.15;69.04;101393.28;2092034;28;20045;-72
2023/07/07 03:31:39;;;;;;;5.40;2.83;;;;;;;17.20;68.94;101392.38;2090842;28;20037;-71
2023/07/07 03:32:41;;;;;;;5.60;2.30;;;;;;;17.27;68.97;101401.72;2099870;28;20096;-71
2023/07/07 03:33:44;;;;;;;6.00;2.55;;;;;;;17.31;69.07;101402.72;2098464;28;20112;-71
2023/07/07 03:34:47;;;;;;;4.78;2.63;;;;;;;17.36;69.07;101399.88;2082500;28;20883;-71
2023/07/07 03:35:50;;;;;;;4.82;2.63;;;;;;;17.41;68.91;101401.72;2091015;28;20152;-71
2023/07/07 03:36:54;;;;;;;4.82;2.45;;;;;;;17.44;68.68;101406.53;2091035;28;20037;-71
2023/07/07 03:37:56;;;;;;;4.68;2.70;;;;;;;17.46;68.56;101403.50;2082890;28;20041;-72
2023/07/07 03:38:58;;;;;;;5.72;2.60;;;;;;;17.44;68.46;101411.19;2074711;28;20053;-71
2023/07/07 03:39:59;;;;;;;5.78;2.60;;;;;;;17.48;68.16;101406.75;2082509;28;20182;-71
2023/07/07 03:41:01;;;;;;;4.38;2.50;;;;;;;17.54;67.85;101408.25;2083185;28;20026;-71
2023/07/07 03:42:08;;;;;;;6.40;2.40;;;;;;;17.57;67.77;101404.91;2091056;28;20053;-71
2023/07/07 03:43:11;;;;;;;6.65;2.50;;;;;;;17.60;67.45;101402.38;2099680;28;20102;-72
2023/07/07 03:44:15;;;;;;;4.22;2.22;;;;;;;17.62;67.46;101407.50;2082398;28;20077;-71
2023/07/07 03:45:17;;;;;;;7.15;2.40;;;;;;;17.61;67.51;101411.34;2083646;28;20033;-72
2023/07/07 03:46:23;;;;;;;6.97;2.20;;;;;;;17.62;67.41;101412.94;2091114;28;20087;-72
2023/07/07 03:47:29;;;;;;;4.22;2.40;;;;;;;17.67;67.42;101410.13;2100284;28;20055;-71
2023/07/07 03:48:31;;;;;;;4.55;2.30;;;;;;;17.75;67.42;101411.34;2098885;28;20041;-70
2023/07/07 03:49:33;;;;;;;7.30;2.38;;;;;;;17.80;67.09;101417.47;2082557;28;20164;-71
2023/07/07 03:50:41;;;;;;;5.45;2.30;;;;;;;17.85;66.65;101415.78;2083812;28;20034;-71
2023/07/07 03:51:44;;;;;;;4.47;2.47;;;;;;;17.96;66.66;101414.41;2091050;28;20155;-71
2023/07/07 03:52:48;;;;;;;5.65;2.50;;;;;;;18.02;66.36;101416.72;2090883;28;20034;-70
2023/07/07 03:53:50;;;;;;;6.70;2.25;;;;;;;18.06;66.46;101411.44;2099249;28;20036;-71
2023/07/07 03:54:58;;;;;;;4.78;2.40;;;;;;;18.04;66.38;101417.22;2098844;28;21075;-72
2023/07/07 03:56:03;;;;;;;4.97;2.20;;;;;;;18.09;66.29;101421.72;2083067;28;20069;-73
2023/07/07 03:57:07;;;;;;;4.43;2.35;;;;;;;18.13;66.24;101417.28;2075014;28;20035;-73
2023/07/07 03:58:09;;;;;;;5.85;2.20;;;;;;;18.09;66.02;101416.28;2083145;28;21056;-73
2023/07/07 03:59:13;;;;;;;6.25;2.50;;;;;;;18.07;66.12;101418.53;2090781;28;20033;-72
2023/07/07 04:00:15;;;;;;;4.55;2.10;;;;;;;18.10;66.00;101409.75;2084820;28;20038;-73
2023/07/07 04:01:16;;;;;;;3.95;2.40;;;;;;;18.18;65.75;101419.06;2082326;28;20048;-71
2023/07/07 04:02:18;;;;;;;5.40;2.20;;;;;;;18.27;65.68;101418.03;2098904;28;20088;-71
2023/07/07 04:03:19;;;;;;;4.07;2.20;;;;;;;18.30;65.71;101417.41;2082432;28;20881;-71
2023/07/07 04:04:21;;;;;;;10.23;2.65;;;;;;;18.38;65.56;101412.31;2058266;28;20036;-71
2023/07/07 04:05:23;;;;;;;6.40;2.10;;;;;;;18.45;65.41;101418.94;2074434;28;20891;-71
2023/07/07 04:06:26;;;;;;;7.22;2.40;;;;;;;18.50;65.40;101416.09;2090294;28;20087;-71
2023/07/07 04:07:31;;;;;;;5.43;2.50;;;;;;;18.54;65.24;101416.28;2083049;28;20037;-71
2023/07/07 04:08:37;;;;;;;4.20;2.20;;;;;;;18.56;65.23;101422.22;2081927;28;20030;-71
2023/07/07 04:09:39;;;;;;;4.60;2.20;;;;;;;18.60;65.12;101420.50;2082702;28;20038;-71
2023/07/07 04:10:43;;;;;;;7.53;2.28;;;;;;;18.60;65.12;101423.22;2081921;28;20033;-71
2023/07/07 04:11:44;;;;;;;4.55;2.22;;;;;;;18.59;64.87;101421.59;2074776;28;20181;-71
2023/07/07 04:12:46;;;;;;;4.20;2.30;;;;;;;18.66;64.76;101427.41;2090379;28;20915;-71
2023/07/07 04:13:49;;;;;;;5.22;2.40;;;;;;;18.66;64.58;101424.69;2074059;28;20046;-71
2023/07/07 04:14:51;;;;;;;5.53;2.42;;;;;;;18.68;64.51;101424.38;2058312;28;20054;-71
2023/07/07 04:16:01;;;;;;;9.70;2.40;;;;;;;18.71;64.25;101427.28;2074287;28;20117;-71
2023/07/07 04:17:05;;;;;;;5.53;2.22;;;;;;;18.76;64.26;101423.66;2073919;28;20499;-71
2023/07/07 04:18:09;;;;;;;6.57;2.30;;;;;;;18.81;63.80;101428.16;2058445;28;20930;-71
2023/07/07 04:19:10;;;;;;;7.25;2.38;;;;;;;18.90;63.84;101434.44;2074166;28;20053;-71
2023/07/07 04:20:13;;;;;;;3.15;2.03;;;;;;;18.92;63.33;101434.94;2082298;28;20191;-71
2023/07/07 04:21:18;;;;;;;3.97;2.10;;;;;;;19.01;63.40;101433.06;2074112;28;20042;-71
2023/07/07 04:22:20;;;;;;;4.03;2.10;;;;;;;19.08;63.14;101436.16;2071285;28;20045;-70
2023/07/07 04:23:22;;;;;;;6.10;2.33;;;;;;;19.15;62.87;101433.75;2065806;28;20044;-71
2023/07/07 04:24:24;;;;;;;4.22;1.95;;;;;;;19.24;62.77;101433.78;2058170;28;20985;-71
2023/07/07 04:25:26;;;;;;;3.97;2.10;;;;;;;19.32;62.45;101435.72;2082437;28;21066;-71
2023/07/07 04:26:28;;;;;;;3.90;1.88;;;;;;;19.45;62.32;101437.56;2082162;28;20049;-71
2023/07/07 04:27:33;;;;;;;4.55;1.98;;;;;;;19.70;61.69;101446.13;2066273;28;20035;-70
2023/07/07 04:28:38;;;;;;;4.22;2.13;;;;;;;19.99;61.24;101437.34;2066491;28;20038;-70
2023/07/07 04:29:42;;;;;;;3.67;2.10;;;;;;;20.30;60.02;101436.34;2082252;28;20041;-71
2023/07/07 04:30:44;;;;;;;4.97;2.13;;;;;;;20.59;59.11;101438.44;2074381;28;20038;-71
2023/07/07 04:31:46;;;;;;;3.95;2.00;;;;;;;20.81;58.85;101440.16;2070064;28;20172;-71
2023/07/07 04:32:48;;;;;;;3.85;2.13;;;;;;;21.08;57.95;101432.66;2081822;28;20037;-71
2023/07/07 04:33:51;;;;;;;5.20;2.35;;;;;;;21.42;57.13;101440.72;2081920;28;20231;-71
2023/07/07 04:34:52;;;;;;;3.35;1.90;;;;;;;21.83;56.00;101441.91;2073788;28;20090;-71
2023/07/07 04:35:56;;;;;;;3.25;1.80;;;;;;;22.22;54.69;101442.56;2082530;28;20029;-71
2023/07/07 04:36:57;;;;;;;4.10;1.92;;;;;;;22.56;53.83;101443.38;2081853;28;20103;-71
2023/07/07 04:38:01;;;;;;;3.03;1.77;;;;;;;22.90;53.21;101442.22;2081564;28;20083;-72
2023/07/07 04:39:03;;;;;;;2.90;1.80;;;;;;;22.93;52.54;101440.75;2082038;28;20044;-71
2023/07/07 04:40:08;;;;;;;3.75;2.10;;;;;;;22.49;52.89;101448.63;2073773;28;20038;-71
2023/07/07 04:41:10;;;;;;;4.10;1.75;;;;;;;22.56;52.54;101446.13;2082824;28;20140;-70
2023/07/07 04:42:15;;;;;;;4.68;1.92;;;;;;;22.86;51.59;101455.00;2089496;28;20894;-71
2023/07/07 04:43:17;;;;;;;3.13;2.00;;;;;;;22.73;51.61;101445.97;2090157;28;21029;-71
2023/07/07 04:44:19;;;;;;;2.60;1.95;;;;;;;22.34;51.73;101441.84;2089938;28;20041;-71
2023/07/07 04:45:23;;;;;;;3.95;2.33;;;;;;;22.37;51.88;101446.63;2065505;28;20037;-71
2023/07/07 04:46:31;;;;;;;5.63;1.80;;;;;;;22.57;51.39;101447.72;2066297;28;20035;-71
2023/07/07 04:47:32;;;;;;;6.47;2.00;;;;;;;22.39;51.61;101458.06;2090591;28;20064;-70
2023/07/07 04:48:34;;;;;;;3.15;1.80;;;;;;;22.13;52.12;101450.03;2090224;28;20029;-71
2023/07/07 04:49:35;;;;;;;5.53;1.77;;;;;;;21.95;52.56;101454.88;2098865;28;20967;-70
2023/07/07 04:50:43;;;;;;;4.45;1.95;;;;;;;21.79;53.18;101460.13;2090044;28;20088;-71
2023/07/07 04:51:47;;;;;;;5.88;2.35;;;;;;;21.61;53.09;101455.91;2083298;28;20034;-71
2023/07/07 04:52:49;;;;;;;3.67;2.30;;;;;;;21.47;53.28;101453.41;2081686;28;20034;-71
2023/07/07 04:53:53;;;;;;;3.78;2.13;;;;;;;21.24;53.89;101456.38;2082584;28;20809;-72
2023/07/07 04:54:55;;;;;;;3.85;2.03;;;;;;;21.07;54.58;101459.19;2073996;28;20172;-72
2023/07/07 04:56:01;;;;;;;3.78;1.90;;;;;;;21.04;55.00;101459.84;2074654;28;20042;-72
2023/07/07 04:57:03;;;;;;;3.72;2.20;;;;;;;21.22;54.93;101460.59;2082377;28;20037;-71
2023/07/07 04:58:05;;;;;;;4.20;1.90;;;;;;;21.43;54.85;101461.47;2082091;28;20033;-72
2023/07/07 04:59:09;;;;;;;4.25;1.83;;;;;;;21.62;54.72;101452.81;2082045;28;20100;-72
2023/07/07 05:00:14;;;;;;;4.07;1.88;;;;;;;21.73;54.52;101459.53;2081908;28;20029;-72
2023/07/07 05:01:19;;;;;;;3.97;2.05;;;;;;;21.82;54.74;101456.75;2081867;28;21582;-72